Terminal Aerodrome Forecast
Issued by NWS

Home | Current Version | Previous Version | Text Only | Print | Product List | Glossary On
Versions: 1 2 3 4 5 6 7 8 9 10 11 12
000
FTUS42 TJSJ 242300 RRA
TAFJBQ
TAF
TJBQ 242343Z 2500/2524 08008KT P6SM SCT030 SCT080
     FM251400 05012KT P6SM SCT030
     FM252300 09008KT P6SM SCT025=

USA.gov is the U.S. government's official web portal to all federal, state and local government web resources and services.